Time;durP1;ratioP1;P1;durP2;ratioP2;P2;SDS_P1;SDS_P2;PMS_P1;PMS_P2;Temp;Humidity;BMP_temperature;BMP_pressure;BME280_temperature;BME280_humidity;BME280_pressure;Samples;Min_cycle;Max_cycle;Signal;HPM_P1;HPM_P2
2023/07/28 00:00:44;;;;;;;1.30;1.10;;;;;;;-141.84;95.59;20578.09;5081370;28;20651;-60
2023/07/28 00:03:14;;;;;;;3.08;1.30;;;;;;;-141.84;95.86;20553.69;5074200;28;20220;-60
2023/07/28 00:05:42;;;;;;;2.40;0.98;;;;;;;-141.84;96.15;20588.25;5082226;28;20228;-61
2023/07/28 00:08:11;;;;;;;2.08;1.35;;;;;;;-141.84;96.07;20578.09;5071614;28;20256;-61
2023/07/28 00:10:42;;;;;;;1.38;1.25;;;;;;;-141.84;95.76;20628.91;5065385;28;20205;-61
2023/07/28 00:13:11;;;;;;;2.40;1.00;;;;;;;-141.84;95.45;20612.63;5057124;28;20225;-60
2023/07/28 00:15:39;;;;;;;1.40;1.30;;;;;;;-141.84;95.93;20590.28;5065089;28;20237;-61
2023/07/28 00:18:07;;;;;;;2.50;1.20;;;;;;;-141.84;96.46;20604.50;5064830;28;20334;-60
2023/07/28 00:20:37;;;;;;;3.15;1.52;;;;;;;-141.84;96.71;20584.19;5065217;28;20366;-61
2023/07/28 00:23:06;;;;;;;1.30;1.20;;;;;;;-141.84;96.39;20606.53;5057122;28;20201;-61
2023/07/28 00:25:34;;;;;;;1.65;1.30;;;;;;;-141.84;95.63;20604.50;5065505;28;20201;-62
2023/07/28 00:28:03;;;;;;;2.53;1.30;;;;;;;-141.84;95.83;20590.28;5064758;28;20790;-61
2023/07/28 00:30:32;;;;;;;1.52;1.38;;;;;;;-141.84;96.09;20592.31;5064538;28;20807;-60
2023/07/28 00:33:00;;;;;;;2.17;1.20;;;;;;;-141.84;95.49;20618.72;5062609;28;20307;-61
2023/07/28 00:35:29;;;;;;;1.77;1.20;;;;;;;-141.84;95.69;20602.47;5060531;28;20282;-61
2023/07/28 00:37:59;;;;;;;1.85;1.20;;;;;;;-141.84;96.13;20647.19;5056425;28;20240;-61
2023/07/28 00:40:27;;;;;;;1.08;1.00;;;;;;;-141.84;96.07;20576.03;5052332;28;20228;-62
2023/07/28 00:42:56;;;;;;;1.55;1.17;;;;;;;-141.84;96.38;20590.28;5064119;28;20310;-61
2023/07/28 00:45:25;;;;;;;3.22;1.15;;;;;;;-141.84;96.38;20541.50;5056882;28;20231;-60
2023/07/28 00:47:54;;;;;;;1.20;1.10;;;;;;;-141.84;96.61;20571.97;5064293;28;20234;-60
2023/07/28 00:50:23;;;;;;;1.20;1.10;;;;;;;-141.84;96.87;20588.25;5083700;28;20807;-61
2023/07/28 00:52:51;;;;;;;1.30;0.98;;;;;;;-141.84;96.99;20592.31;5084711;28;20675;-62
2023/07/28 00:55:21;;;;;;;1.90;1.10;;;;;;;-141.84;96.57;20639.06;5077424;28;20270;-61
2023/07/28 00:57:50;;;;;;;1.27;1.17;;;;;;;-141.84;95.84;20610.59;5084304;28;20249;-61
2023/07/28 01:00:19;;;;;;;1.00;0.90;;;;;;;-141.84;95.63;20602.47;5084433;28;20464;-60
2023/07/28 01:02:47;;;;;;;1.15;1.00;;;;;;;-141.84;95.65;20616.69;5084267;28;20326;-60
2023/07/28 01:05:16;;;;;;;1.02;0.93;;;;;;;-141.84;95.46;20606.53;5076475;28;20323;-60
2023/07/28 01:07:51;;;;;;;1.38;1.05;;;;;;;-141.84;95.71;20606.53;5076834;28;20208;-60
2023/07/28 01:10:27;;;;;;;2.92;0.90;;;;;;;-141.84;95.66;20586.22;5064266;28;20230;-60
2023/07/28 01:12:55;;;;;;;3.17;0.98;;;;;;;-141.84;95.46;20610.59;5063851;28;20318;-60
2023/07/28 01:15:24;;;;;;;1.38;0.73;;;;;;;-141.84;94.90;20645.16;5056337;28;20224;-61
2023/07/28 01:17:53;;;;;;;1.23;0.90;;;;;;;-141.84;93.51;20671.59;5063413;28;20232;-60
2023/07/28 01:20:27;;;;;;;1.75;1.00;;;;;;;-141.84;94.10;20630.94;5063179;28;20692;-61
2023/07/28 01:23:09;;;;;;;1.48;0.90;;;;;;;-141.84;94.77;20592.31;5063684;28;20208;-61
2023/07/28 01:25:56;;;;;;;2.33;1.38;;;;;;;-141.84;94.56;20610.59;5064242;28;20684;-60
2023/07/28 01:28:27;;;;;;;3.05;0.95;;;;;;;-141.84;94.61;20606.53;5064070;28;20325;-60
2023/07/28 01:30:55;;;;;;;0.82;0.80;;;;;;;-141.84;94.07;20663.47;5063457;28;20301;-60
2023/07/28 01:33:24;;;;;;;1.52;1.00;;;;;;;-141.84;93.53;20663.47;5054261;28;20266;-61
2023/07/28 01:35:52;;;;;;;1.15;1.00;;;;;;;-141.84;93.32;20663.47;5043391;28;20237;-61
2023/07/28 01:38:21;;;;;;;1.50;0.80;;;;;;;-141.84;92.85;20632.97;5043881;28;20650;-60
2023/07/28 01:40:49;;;;;;;2.17;0.90;;;;;;;-141.84;91.72;20695.97;5053259;28;20297;-60
2023/07/28 01:43:18;;;;;;;1.38;0.90;;;;;;;-141.84;91.35;20687.84;5056432;28;20301;-61
2023/07/28 01:45:48;;;;;;;3.25;1.00;;;;;;;-141.84;90.69;20698.00;5063292;28;20322;-61
2023/07/28 01:48:16;;;;;;;1.08;0.98;;;;;;;-141.84;89.73;20689.88;5064762;28;20266;-61
2023/07/28 01:50:45;;;;;;;0.95;0.80;;;;;;;-141.84;90.29;20645.16;5066502;28;20267;-61
2023/07/28 01:53:13;;;;;;;1.48;0.90;;;;;;;-141.84;90.49;20693.94;5055157;28;20229;-60
2023/07/28 01:55:42;;;;;;;2.97;1.02;;;;;;;-141.84;90.81;20679.72;5063784;28;20322;-61
2023/07/28 01:58:10;;;;;;;1.75;0.93;;;;;;;-141.84;91.17;20685.81;5063017;28;20315;-60
2023/07/28 02:00:39;;;;;;;2.00;0.88;;;;;;;-141.84;89.84;20728.50;5063008;28;20234;-60
2023/07/28 02:03:09;;;;;;;2.88;0.93;;;;;;;-141.84;90.56;20706.16;5054610;28;20252;-60
2023/07/28 02:05:37;;;;;;;2.00;1.05;;;;;;;-141.84;90.66;20671.59;5062968;28;20237;-61
2023/07/28 02:08:06;;;;;;;2.55;1.10;;;;;;;-141.84;91.20;20671.59;5052085;28;20296;-61
2023/07/28 02:10:34;;;;;;;1.48;1.00;;;;;;;-141.84;91.25;20667.53;5043616;28;20215;-60
2023/07/28 02:13:03;;;;;;;1.80;1.00;;;;;;;-141.84;91.26;20720.38;5035317;28;20287;-61
2023/07/28 02:15:31;;;;;;;0.98;0.90;;;;;;;-141.84;90.94;20683.78;5042248;28;20253;-60
2023/07/28 02:17:59;;;;;;;1.00;0.90;;;;;;;-141.84;89.76;20716.31;5042291;28;20787;-61
2023/07/28 02:20:29;;;;;;;1.42;1.00;;;;;;;-141.84;89.07;20693.94;5042327;28;20678;-61
2023/07/28 02:22:58;;;;;;;1.48;1.00;;;;;;;-141.84;89.73;20675.66;5042485;28;20210;-60
2023/07/28 02:25:27;;;;;;;0.90;0.80;;;;;;;-141.84;90.49;20683.78;5043474;28;20339;-61
2023/07/28 02:27:55;;;;;;;2.38;1.20;;;;;;;-141.84;90.05;20716.31;5042549;28;20239;-61
2023/07/28 02:30:24;;;;;;;0.90;0.90;;;;;;;-141.84;90.55;20708.19;5034712;28;20222;-60
2023/07/28 02:32:52;;;;;;;1.88;1.00;;;;;;;-141.84;89.85;20714.28;5021700;28;20666;-60
2023/07/28 02:35:21;;;;;;;1.15;0.85;;;;;;;-141.84;89.91;20679.72;5013900;28;20463;-61
2023/07/28 02:37:51;;;;;;;1.27;0.80;;;;;;;-141.84;90.79;20691.91;5021564;28;20240;-62
2023/07/28 02:40:19;;;;;;;2.17;1.38;;;;;;;-141.84;89.80;20671.59;5028386;28;20198;-60
2023/07/28 02:42:48;;;;;;;3.00;1.08;;;;;;;-141.84;89.62;20712.25;5042345;28;20312;-61
2023/07/28 02:45:16;;;;;;;1.45;0.90;;;;;;;-141.84;88.81;20752.91;5034164;28;20621;-60
2023/07/28 02:47:45;;;;;;;1.23;1.10;;;;;;;-141.84;88.24;20750.88;5042276;28;20304;-60
2023/07/28 02:50:14;;;;;;;3.58;1.10;;;;;;;-141.84;88.61;20736.63;5059758;28;20239;-60
2023/07/28 02:52:42;;;;;;;1.88;1.08;;;;;;;-141.84;88.63;20720.38;5062422;28;20299;-61
2023/07/28 02:55:12;;;;;;;1.08;0.80;;;;;;;-141.84;88.22;20728.50;5054130;28;20232;-61
2023/07/28 02:57:40;;;;;;;1.52;1.00;;;;;;;-141.84;88.33;20730.53;5062079;28;20335;-61
2023/07/28 03:00:11;;;;;;;1.70;1.20;;;;;;;-141.84;88.22;20744.78;5062012;28;20260;-61
2023/07/28 03:02:39;;;;;;;1.00;1.00;;;;;;;-141.84;87.60;20763.06;5062616;28;20304;-61
2023/07/28 03:05:08;;;;;;;2.28;1.00;;;;;;;-141.84;86.59;20781.38;5053874;28;20864;-61
2023/07/28 03:07:37;;;;;;;1.33;0.98;;;;;;;-141.84;86.73;20763.06;5055084;28;20693;-60
2023/07/28 03:10:06;;;;;;;2.42;0.90;;;;;;;-141.84;86.80;20781.38;5041728;28;20225;-62
2023/07/28 03:12:36;;;;;;;2.75;1.00;;;;;;;-141.84;86.04;20767.13;5042019;28;20320;-59
2023/07/28 03:15:06;;;;;;;2.58;0.98;;;;;;;-141.84;86.21;20765.09;5033895;28;20247;-61
2023/07/28 03:17:34;;;;;;;2.95;1.10;;;;;;;-141.84;85.91;20752.91;5042390;28;20326;-61
2023/07/28 03:20:03;;;;;;;3.35;0.90;;;;;;;-141.84;85.39;20822.03;5041565;28;20263;-60
2023/07/28 03:22:31;;;;;;;1.00;0.90;;;;;;;-141.84;85.96;20746.81;5042415;28;20210;-60
2023/07/28 03:25:00;;;;;;;2.42;0.80;;;;;;;-141.84;86.09;20820.00;5040065;28;20316;-63
2023/07/28 03:27:28;;;;;;;1.73;1.00;;;;;;;-141.84;86.21;20809.81;5038585;28;20713;-61
2023/07/28 03:29:58;;;;;;;1.38;1.10;;;;;;;-141.84;85.64;20781.38;5041695;28;20314;-61
2023/07/28 03:32:27;;;;;;;1.20;1.10;;;;;;;-141.84;85.48;20785.44;5041993;28;20252;-60
2023/07/28 03:34:55;;;;;;;2.15;0.82;;;;;;;-141.84;85.63;20759.00;5041533;28;20458;-61
2023/07/28 03:37:24;;;;;;;1.77;1.00;;;;;;;-141.84;86.33;20797.63;5034263;28;20300;-60
2023/07/28 03:39:52;;;;;;;1.73;0.80;;;;;;;-141.84;85.16;20801.69;5041243;28;20592;-60
2023/07/28 03:42:21;;;;;;;3.63;1.00;;;;;;;-141.84;86.44;20742.75;5042016;28;20316;-60
2023/07/28 03:44:49;;;;;;;1.88;0.90;;;;;;;-141.84;86.78;20728.50;5045569;28;20229;-60
2023/07/28 03:47:19;;;;;;;1.42;0.90;;;;;;;-141.84;87.13;20752.91;5038775;28;20229;-62
2023/07/28 03:49:48;;;;;;;2.15;0.90;;;;;;;-141.84;88.10;20708.19;5060220;28;20225;-61
2023/07/28 03:52:17;;;;;;;2.45;1.00;;;;;;;-141.84;88.03;20726.47;5066178;28;20228;-61
2023/07/28 03:54:46;;;;;;;1.73;0.88;;;;;;;-141.84;87.96;20718.34;5065056;28;20259;-60
2023/07/28 03:57:15;;;;;;;1.63;0.93;;;;;;;-141.84;87.71;20718.34;5057914;28;20691;-62
2023/07/28 03:59:43;;;;;;;1.27;1.08;;;;;;;-141.84;88.06;20728.50;5065560;28;20339;-60
2023/07/28 04:02:12;;;;;;;1.63;1.13;;;;;;;-141.84;88.49;20730.53;5065992;28;20229;-61
2023/07/28 04:04:42;;;;;;;2.35;1.00;;;;;;;-141.84;86.83;20734.59;5054005;28;20255;-61
2023/07/28 04:07:10;;;;;;;2.05;1.00;;;;;;;-141.84;87.22;20734.59;5042575;28;20213;-62
2023/07/28 04:09:39;;;;;;;1.67;1.08;;;;;;;-141.84;87.89;20720.38;5045266;28;20229;-60
2023/07/28 04:12:08;;;;;;;1.58;0.90;;;;;;;-141.84;87.50;20756.97;5045281;28;20666;-61
2023/07/28 04:14:37;;;;;;;2.70;1.00;;;;;;;-141.84;87.28;20730.53;5044854;28;20236;-60
2023/07/28 04:17:06;;;;;;;1.25;0.90;;;;;;;-141.84;86.96;20744.78;5037321;28;20638;-61
2023/07/28 04:19:35;;;;;;;1.73;1.08;;;;;;;-141.84;87.30;20744.78;5045422;28;20751;-61
2023/07/28 04:22:05;;;;;;;0.90;0.90;;;;;;;-141.84;87.65;20730.53;5044427;28;20236;-61
2023/07/28 04:24:34;;;;;;;0.90;0.90;;;;;;;-141.84;86.96;20716.31;5025134;28;20328;-60
2023/07/28 04:27:03;;;;;;;4.32;1.15;;;;;;;-141.84;87.70;20734.59;5030125;28;20225;-60
2023/07/28 04:29:32;;;;;;;2.35;1.08;;;;;;;-141.84;85.91;20789.50;5045117;28;20279;-60
2023/07/28 04:32:01;;;;;;;2.35;1.05;;;;;;;-141.84;85.10;20783.41;5044970;28;20201;-61
2023/07/28 04:34:29;;;;;;;2.50;1.90;;;;;;;-141.84;86.68;20746.81;5045323;28;20316;-60
2023/07/28 04:36:58;;;;;;;2.90;2.53;;;;;;;-141.84;87.04;20710.22;5044798;28;20332;-60
2023/07/28 04:39:28;;;;;;;2.05;1.20;;;;;;;-141.84;88.84;20677.69;5044161;28;20229;-60
2023/07/28 04:41:57;;;;;;;1.83;0.90;;;;;;;-141.84;89.32;20722.41;5025972;28;20226;-61
2023/07/28 04:44:25;;;;;;;1.67;1.10;;;;;;;-141.84;89.28;20704.13;5025019;28;20313;-61
2023/07/28 04:46:53;;;;;;;1.48;0.95;;;;;;;-141.84;88.03;20748.84;5024223;28;20312;-60
2023/07/28 04:49:22;;;;;;;2.65;1.08;;;;;;;-141.84;88.93;20643.13;5047091;28;20243;-60
2023/07/28 04:51:50;;;;;;;1.15;0.90;;;;;;;-141.84;89.46;20708.19;5064376;28;20235;-61
2023/07/28 04:54:19;;;;;;;2.08;1.10;;;;;;;-141.84;89.07;20712.25;5063612;28;20224;-60
2023/07/28 04:56:49;;;;;;;1.88;1.10;;;;;;;-141.84;88.15;20748.84;5063818;28;20315;-60
2023/07/28 04:59:18;;;;;;;2.45;1.00;;;;;;;-141.84;88.33;20740.69;5056309;28;20281;-60
2023/07/28 05:01:46;;;;;;;2.17;1.08;;;;;;;-141.84;87.63;20736.63;5045806;28;20205;-60
2023/07/28 05:04:15;;;;;;;1.00;0.93;;;;;;;-141.84;88.46;20732.56;5044123;28;20233;-60
2023/07/28 05:06:43;;;;;;;1.48;0.90;;;;;;;-141.84;87.30;20742.75;5043654;28;20299;-60
2023/07/28 05:09:12;;;;;;;1.67;1.13;;;;;;;-141.84;87.23;20748.84;5036138;28;20332;-61
2023/07/28 05:11:40;;;;;;;1.00;0.93;;;;;;;-141.84;86.75;20783.41;5043948;28;20233;-62
2023/07/28 05:14:10;;;;;;;0.80;0.80;;;;;;;-141.84;87.13;20779.31;5044315;28;20869;-60
2023/07/28 05:16:39;;;;;;;3.70;0.98;;;;;;;-141.84;87.26;20752.91;5044750;28;20213;-60
2023/07/28 05:19:08;;;;;;;1.25;0.98;;;;;;;-141.84;87.08;20761.03;5028934;28;20236;-61
2023/07/28 05:21:36;;;;;;;4.32;1.10;;;;;;;-141.84;87.01;20771.19;5024106;28;20312;-61
2023/07/28 05:24:05;;;;;;;7.68;1.30;;;;;;;-141.84;86.56;20759.00;5023889;28;20325;-61
2023/07/28 05:26:33;;;;;;;7.55;1.33;;;;;;;-141.84;86.66;20801.69;5031623;28;20229;-60
2023/07/28 05:29:02;;;;;;;2.53;0.90;;;;;;;-141.84;84.24;20862.69;5036376;28;20244;-61
2023/07/28 05:31:32;;;;;;;1.63;1.08;;;;;;;-141.84;83.29;20878.94;5043993;28;20300;-61
2023/07/28 05:34:01;;;;;;;5.40;1.40;;;;;;;-141.84;83.49;20858.59;5044137;28;20303;-61
2023/07/28 05:36:30;;;;;;;3.25;1.00;;;;;;;-141.84;83.48;20883.00;5043008;28;20318;-60
2023/07/28 05:38:59;;;;;;;2.30;1.00;;;;;;;-141.84;83.77;20899.28;5043643;28;20239;-61
2023/07/28 05:41:28;;;;;;;2.22;0.90;;;;;;;-141.84;82.85;20891.13;5040423;28;20318;-61
2023/07/28 05:43:56;;;;;;;2.25;0.70;;;;;;;-141.84;81.01;20935.88;5043357;28;20245;-61
2023/07/28 05:46:25;;;;;;;0.63;0.60;;;;;;;-141.84;81.41;20982.63;5044229;28;20623;-60
2023/07/28 05:48:55;;;;;;;1.58;0.70;;;;;;;-141.84;80.73;20986.69;5051524;28;20343;-61
2023/07/28 05:51:24;;;;;;;0.88;0.75;;;;;;;-141.84;79.27;21078.16;5054875;28;20311;-61
2023/07/28 05:53:53;;;;;;;0.75;0.57;;;;;;;-141.84;79.03;21055.81;5063912;28;20239;-61
2023/07/28 05:56:21;;;;;;;1.25;0.77;;;;;;;-141.84;79.02;21049.72;5058168;28;20316;-61
2023/07/28 05:58:50;;;;;;;1.98;0.80;;;;;;;-141.84;79.67;21021.25;5043317;28;20244;-62
2023/07/28 06:01:19;;;;;;;1.55;0.90;;;;;;;-141.84;79.70;20988.72;5036049;28;20534;-61
2023/07/28 06:03:48;;;;;;;0.95;0.82;;;;;;;-141.84;80.92;20966.34;5042845;28;20221;-61
2023/07/28 06:06:18;;;;;;;1.45;0.60;;;;;;;-141.84;81.91;20968.38;5044067;28;20312;-61
2023/07/28 06:08:47;;;;;;;2.25;0.70;;;;;;;-141.84;81.32;20972.47;5045888;28;20644;-61
2023/07/28 06:11:15;;;;;;;0.93;0.70;;;;;;;-141.84;81.24;21000.91;5035402;28;20766;-61
2023/07/28 06:13:45;;;;;;;3.22;0.80;;;;;;;-141.84;79.84;21009.03;5043771;28;20298;-61
2023/07/28 06:16:13;;;;;;;2.03;0.80;;;;;;;-141.84;78.10;21043.59;5028405;28;20313;-61
2023/07/28 06:18:42;;;;;;;0.70;0.68;;;;;;;-141.84;78.69;21039.53;5036793;28;20237;-62
2023/07/28 06:21:10;;;;;;;1.13;0.70;;;;;;;-141.84;77.92;21090.38;5034872;28;20403;-61
2023/07/28 06:23:40;;;;;;;0.88;0.70;;;;;;;-141.84;77.42;21118.84;5042605;28;20652;-60
2023/07/28 06:26:09;;;;;;;1.77;0.75;;;;;;;-141.84;76.38;21155.44;5042674;28;22508;-64
2023/07/28 06:28:38;;;;;;;0.90;0.65;;;;;;;-141.84;75.35;21179.81;5042601;28;20291;-61
2023/07/28 06:31:07;;;;;;;1.88;0.60;;;;;;;-141.84;75.76;21194.06;5034350;28;20229;-61
2023/07/28 06:33:36;;;;;;;0.68;0.68;;;;;;;-141.84;76.35;21169.66;5042719;28;20225;-61
2023/07/28 06:36:05;;;;;;;0.80;0.60;;;;;;;-141.84;76.53;21224.56;5042164;28;20315;-61
2023/07/28 06:38:33;;;;;;;0.82;0.60;;;;;;;-141.84;74.39;21346.53;5042172;28;20308;-61
2023/07/28 06:41:03;;;;;;;0.60;0.60;;;;;;;-141.84;71.43;21377.03;5023965;28;20572;-61
2023/07/28 06:43:32;;;;;;;2.45;0.70;;;;;;;-141.84;71.64;21405.50;5023119;28;20209;-62
2023/07/28 06:46:00;;;;;;;0.88;0.70;;;;;;;-141.84;71.03;21427.88;5022405;28;20257;-61
2023/07/28 06:48:29;;;;;;;2.85;0.70;;;;;;;-141.84;71.08;21438.03;5034128;28;20617;-62
2023/07/28 06:50:58;;;;;;;1.25;0.85;;;;;;;-141.84;72.18;21368.91;5078612;28;20319;-62
2023/07/28 06:53:26;;;;;;;0.63;0.63;;;;;;;-141.84;71.22;21442.09;5066137;28;20228;-61
2023/07/28 06:55:55;;;;;;;0.68;0.65;;;;;;;-141.84;69.52;21476.66;5062391;28;20654;-61
2023/07/28 06:58:25;;;;;;;0.70;0.70;;;;;;;-141.84;68.93;21521.41;5062498;28;20224;-61
2023/07/28 07:00:55;;;;;;;4.78;0.93;;;;;;;-141.84;69.16;21519.34;5061786;28;20260;-62
2023/07/28 07:03:24;;;;;;;1.52;0.70;;;;;;;-141.84;69.86;21452.25;5054088;28;20314;-61
2023/07/28 07:05:52;;;;;;;0.57;0.57;;;;;;;-141.84;70.92;21436.00;5062305;28;20337;-63
2023/07/28 07:08:21;;;;;;;0.60;0.60;;;;;;;-141.84;70.48;21464.47;5067847;28;20273;-61
2023/07/28 07:10:51;;;;;;;0.70;0.68;;;;;;;-141.84;71.28;21368.91;5061396;28;20212;-63
2023/07/28 07:13:19;;;;;;;1.15;0.70;;;;;;;-141.84;72.12;21368.91;5034738;28;20304;-62
2023/07/28 07:15:49;;;;;;;0.68;0.60;;;;;;;-141.84;72.48;21460.41;5042024;28;20225;-60
2023/07/28 07:18:18;;;;;;;1.10;0.70;;;;;;;-141.84;69.84;21523.44;5052004;28;20282;-62
2023/07/28 07:20:46;;;;;;;1.58;0.70;;;;;;;-141.84;68.08;21619.00;5061786;28;20320;-62
2023/07/28 07:23:15;;;;;;;1.50;0.80;;;;;;;-141.84;66.75;21653.56;5054206;28;20255;-61
2023/07/28 07:25:43;;;;;;;0.88;0.70;;;;;;;-141.84;65.79;21728.78;5062434;28;20287;-62
2023/07/28 07:28:11;;;;;;;1.90;0.70;;;;;;;-141.84;65.86;21793.84;5061832;28;20224;-62
2023/07/28 07:30:40;;;;;;;0.75;0.70;;;;;;;-141.84;65.78;21777.59;5061909;28;20669;-62
2023/07/28 07:33:10;;;;;;;0.70;0.70;;;;;;;-141.84;64.51;21883.31;5053484;28;20604;-62
2023/07/28 07:35:39;;;;;;;0.95;0.88;;;;;;;-141.84;64.92;21795.88;5061480;28;20401;-62
2023/07/28 07:38:08;;;;;;;0.82;0.63;;;;;;;-141.84;65.33;21777.59;5061856;28;20252;-60
2023/07/28 07:40:37;;;;;;;0.75;0.75;;;;;;;-141.84;64.04;21822.31;5059297;28;20223;-61
2023/07/28 07:43:06;;;;;;;1.98;0.80;;;;;;;-141.84;64.22;21789.78;5049874;28;20719;-61
2023/07/28 07:45:34;;;;;;;2.30;0.77;;;;;;;-141.84;65.34;21797.94;5060830;28;20697;-61
2023/07/28 07:48:03;;;;;;;0.80;0.80;;;;;;;-141.84;64.41;21830.47;5061207;28;20285;-61
2023/07/28 07:50:33;;;;;;;0.60;0.60;;;;;;;-141.84;64.28;21826.41;5046328;28;20268;-59
2023/07/28 07:53:02;;;;;;;0.70;0.65;;;;;;;-141.84;64.20;21834.53;5038162;28;20215;-60
2023/07/28 07:55:31;;;;;;;1.65;0.70;;;;;;;-141.84;63.20;21889.44;5042099;28;20643;-60
2023/07/28 07:57:59;;;;;;;0.77;0.77;;;;;;;-141.84;63.39;21838.59;5041323;28;20296;-60
2023/07/28 08:00:28;;;;;;;0.80;0.80;;;;;;;-141.84;64.08;21747.09;5041275;28;20339;-60
2023/07/28 08:02:56;;;;;;;1.17;0.70;;;;;;;-141.84;63.65;21838.59;5041377;28;20260;-60
2023/07/28 08:05:25;;;;;;;1.52;0.70;;;;;;;-141.84;62.71;21881.28;5035606;28;20233;-58
2023/07/28 08:07:55;;;;;;;1.55;0.70;;;;;;;-141.84;62.82;21934.16;5033694;28;20334;-59
2023/07/28 08:10:24;;;;;;;2.25;0.80;;;;;;;-141.84;62.85;21926.03;5045793;28;20297;-59
2023/07/28 08:12:52;;;;;;;0.85;0.80;;;;;;;-141.84;61.53;21883.31;5024970;28;20249;-60
2023/07/28 08:15:21;;;;;;;0.80;0.80;;;;;;;-141.84;61.76;21944.34;5024771;28;20646;-60
2023/07/28 08:17:50;;;;;;;0.70;0.70;;;;;;;-141.84;61.15;21966.69;5039267;28;20312;-61
2023/07/28 08:20:18;;;;;;;1.08;1.00;;;;;;;-141.84;60.88;21987.03;5025915;28;20230;-62
2023/07/28 08:22:47;;;;;;;0.90;0.90;;;;;;;-141.84;61.97;21887.41;5013839;28;20240;-61
2023/07/28 08:25:18;;;;;;;0.88;0.88;;;;;;;-141.84;62.82;21921.97;5021054;28;20935;-63
2023/07/28 08:27:46;;;;;;;1.55;0.80;;;;;;;-141.84;61.85;22029.75;5030046;28;20689;-62
2023/07/28 08:30:16;;;;;;;1.50;0.75;;;;;;;-141.84;60.47;22096.84;5022616;28;20229;-60
2023/07/28 08:32:44;;;;;;;0.80;0.80;;;;;;;-141.84;58.95;22090.75;5017089;28;20729;-61
2023/07/28 08:35:13;;;;;;;2.15;0.85;;;;;;;-141.84;59.73;22098.88;5024873;28;20229;-61
2023/07/28 08:37:42;;;;;;;1.15;1.02;;;;;;;-141.84;58.70;22119.22;5024416;28;20258;-60
2023/07/28 08:40:12;;;;;;;1.92;0.80;;;;;;;-141.84;59.04;22166.00;5025020;28;20322;-60
2023/07/28 08:42:42;;;;;;;2.67;1.00;;;;;;;-141.84;59.90;22143.63;5017490;28;20285;-62
2023/07/28 08:45:10;;;;;;;0.70;0.70;;;;;;;-141.84;58.75;22182.25;5032747;28;20599;-64
2023/07/28 08:47:39;;;;;;;0.70;0.70;;;;;;;-141.84;59.51;22102.94;5029801;28;20225;-61
2023/07/28 08:50:08;;;;;;;1.02;0.70;;;;;;;-141.84;60.86;22021.59;5042883;28;20732;-60
2023/07/28 08:52:37;;;;;;;0.90;0.90;;;;;;;-141.84;60.97;22033.81;5037159;28;20744;-64
2023/07/28 08:55:06;;;;;;;1.38;0.80;;;;;;;-141.84;60.64;22050.06;5045274;28;20304;-60
2023/07/28 08:57:34;;;;;;;0.65;0.65;;;;;;;-141.84;60.35;22046.00;5045606;28;20248;-62
2023/07/28 09:00:13;;;;;;;0.80;0.80;;;;;;;-141.84;61.22;22009.41;5045071;28;20225;-63
2023/07/28 09:02:42;;;;;;;1.38;0.90;;;;;;;-141.84;58.94;22070.41;5036584;28;20236;-62
2023/07/28 09:05:19;;;;;;;1.77;0.95;;;;;;;-141.84;58.95;22102.94;5044378;28;20732;-61
2023/07/28 09:07:48;;;;;;;0.90;0.90;;;;;;;-141.84;58.97;22094.81;5044408;28;20298;-63
2023/07/28 09:10:16;;;;;;;2.08;1.00;;;;;;;-141.84;60.02;22062.28;5044331;28;20296;-61
2023/07/28 09:12:49;;;;;;;0.75;0.75;;;;;;;-141.84;59.19;22064.31;5016232;28;20209;-61
2023/07/28 09:15:20;;;;;;;1.58;1.10;;;;;;;-141.84;58.88;22139.56;5024444;28;20320;-59
2023/07/28 09:17:49;;;;;;;0.90;0.90;;;;;;;-141.84;58.18;22229.03;5033908;28;20317;-59
2023/07/28 09:20:18;;;;;;;1.10;1.00;;;;;;;-141.84;57.54;22312.41;5044860;28;20316;-60
2023/07/28 09:22:47;;;;;;;1.00;0.80;;;;;;;-141.84;56.86;22322.56;5035850;28;20233;-59
2023/07/28 09:25:17;;;;;;;1.10;0.90;;;;;;;-141.84;57.43;22314.44;5043783;28;20198;-60
2023/07/28 09:27:51;;;;;;;3.65;1.00;;;;;;;-141.84;57.46;22326.66;5044306;28;20198;-61
2023/07/28 09:30:22;;;;;;;1.27;0.90;;;;;;;-141.84;57.56;22367.31;5044052;28;20327;-61
2023/07/28 09:32:52;;;;;;;1.15;1.00;;;;;;;-141.84;56.86;22391.72;5043038;28;20464;-60
2023/07/28 09:35:21;;;;;;;1.20;1.10;;;;;;;-141.84;56.88;22393.75;5043564;28;20312;-61
2023/07/28 09:37:52;;;;;;;1.88;1.20;;;;;;;-141.84;56.06;22440.53;5043286;28;20228;-62
2023/07/28 09:40:23;;;;;;;1.25;1.10;;;;;;;-141.84;56.59;22464.94;5043165;28;20574;-60
2023/07/28 09:42:54;;;;;;;0.90;0.85;;;;;;;-141.84;55.73;22469.00;5040276;28;20221;-62
2023/07/28 09:45:26;;;;;;;0.90;0.90;;;;;;;-141.84;55.21;22507.66;5051310;28;20228;-63
2023/07/28 09:48:08;;;;;;;2.20;1.08;;;;;;;-141.84;55.79;22499.50;5049700;28;20569;-61
2023/07/28 09:50:39;;;;;;;0.75;0.75;;;;;;;-141.84;55.60;22460.88;5043676;28;20602;-61
2023/07/28 09:53:10;;;;;;;1.95;1.02;;;;;;;-141.84;56.46;22408.00;5063494;28;20225;-61
2023/07/28 09:55:42;;;;;;;1.45;1.35;;;;;;;-141.84;56.06;22440.53;5062900;28;20815;-60
2023/07/28 09:58:13;;;;;;;1.00;0.90;;;;;;;-141.84;56.72;22371.38;5063403;28;20251;-61
2023/07/28 10:00:43;;;;;;;1.00;0.90;;;;;;;-141.84;57.41;22353.09;5055839;28;20664;-63
2023/07/28 10:03:12;;;;;;;1.00;0.90;;;;;;;-141.84;57.14;22377.47;5063213;28;20220;-61
2023/07/28 10:05:42;;;;;;;2.92;1.00;;;;;;;-141.84;56.36;22416.13;5063727;28;20734;-63
2023/07/28 10:08:12;;;;;;;1.10;1.00;;;;;;;-141.84;56.24;22426.28;5063001;28;20742;-62
2023/07/28 10:10:42;;;;;;;0.80;0.80;;;;;;;-141.84;55.33;22440.53;5056012;28;20229;-60
2023/07/28 10:13:21;;;;;;;0.88;0.88;;;;;;;-141.84;55.55;22481.22;5062593;28;20245;-62
2023/07/28 10:15:51;;;;;;;1.77;1.10;;;;;;;-141.84;55.75;22473.06;5063114;28;20688;-63
2023/07/28 10:18:22;;;;;;;1.27;0.93;;;;;;;-141.84;56.47;22422.22;5062744;28;20232;-60
2023/07/28 10:20:51;;;;;;;2.58;1.27;;;;;;;-141.84;56.29;22428.31;5061728;28;20746;-62
2023/07/28 10:23:22;;;;;;;1.30;0.93;;;;;;;-141.84;57.15;22363.25;5063044;28;20236;-61
2023/07/28 10:25:59;;;;;;;1.35;1.20;;;;;;;-141.84;56.11;22473.06;5062783;28;20278;-63
2023/07/28 10:28:31;;;;;;;1.77;1.13;;;;;;;-141.84;55.69;22497.47;5055382;28;20244;-61
2023/07/28 10:31:02;;;;;;;1.20;1.10;;;;;;;-141.84;54.69;22544.25;5063247;28;20302;-62
2023/07/28 10:33:34;;;;;;;1.10;1.10;;;;;;;-141.84;54.08;22503.56;5062793;28;20692;-61
2023/07/28 10:36:15;;;;;;;1.10;0.98;;;;;;;-141.84;54.58;22517.81;5062548;28;20360;-61
2023/07/28 10:38:44;;;;;;;1.70;0.98;;;;;;;-141.84;54.30;22633.75;5054819;28;20675;-62
2023/07/28 10:41:16;;;;;;;2.10;1.05;;;;;;;-141.84;53.01;22660.19;5060180;28;20235;-63
2023/07/28 10:43:46;;;;;;;1.05;1.00;;;;;;;-141.84;53.72;22652.03;5051316;28;20239;-63
2023/07/28 10:46:18;;;;;;;1.50;1.15;;;;;;;-141.84;54.24;22629.66;5062628;28;20201;-63
2023/07/28 10:48:49;;;;;;;1.27;1.10;;;;;;;-141.84;54.29;22645.94;5054205;28;20248;-65
2023/07/28 10:51:28;;;;;;;1.58;1.20;;;;;;;-141.84;53.37;22741.53;5061953;28;20228;-63
2023/07/28 10:53:57;;;;;;;0.98;0.90;;;;;;;-141.84;52.10;22824.94;5061608;28;20228;-64
2023/07/28 10:56:27;;;;;;;1.10;1.00;;;;;;;-141.84;51.37;22715.09;5055732;28;20236;-62
2023/07/28 10:58:59;;;;;;;1.27;1.17;;;;;;;-141.84;51.63;22725.25;5062391;28;20260;-61
2023/07/28 11:01:34;;;;;;;2.05;1.10;;;;;;;-141.84;52.32;22619.50;5058962;28;20327;-61
2023/07/28 11:04:14;;;;;;;1.33;1.00;;;;;;;-141.84;53.58;22538.16;5061094;28;20258;-62
2023/07/28 11:06:44;;;;;;;1.20;1.10;;;;;;;-141.84;54.31;22434.44;5046989;28;20635;-62
2023/07/28 11:09:14;;;;;;;1.20;1.10;;;;;;;-141.84;54.81;22387.66;5060093;28;20609;-61
2023/07/28 11:11:44;;;;;;;3.92;1.30;;;;;;;-141.84;55.49;22342.91;5056905;28;20220;-62
2023/07/28 11:14:17;;;;;;;1.35;1.08;;;;;;;-141.84;55.42;22375.44;5061057;28;20231;-60
2023/07/28 11:16:48;;;;;;;1.13;1.02;;;;;;;-141.84;55.09;22416.13;5053301;28;20286;-61
2023/07/28 11:19:24;;;;;;;1.30;1.20;;;;;;;-141.84;54.53;22412.06;5061973;28;20718;-61
2023/07/28 11:21:53;;;;;;;1.77;1.20;;;;;;;-141.84;54.23;22458.84;5062488;28;20583;-62
2023/07/28 11:24:23;;;;;;;1.58;1.00;;;;;;;-141.84;53.58;22607.31;5061592;28;20235;-61
2023/07/28 11:26:53;;;;;;;0.90;0.90;;;;;;;-141.84;53.11;22706.97;5058165;28;20244;-61